createdAt,value
2023-03-19T00:04:46.868Z,100850.19
2023-03-19T00:09:52.265Z,100844.66
2023-03-19T00:14:57.855Z,100843.58
2023-03-19T00:20:03.630Z,100849.10
2023-03-19T00:25:10.190Z,100855.13
2023-03-19T00:30:16.349Z,100850.42
2023-03-19T00:35:21.944Z,100846.38
2023-03-19T00:40:27.542Z,100844.86
2023-03-19T00:45:33.482Z,100844.30
2023-03-19T00:50:40.434Z,100840.16
2023-03-19T00:55:47.471Z,100845.14
2023-03-19T01:00:57.010Z,100843.97
2023-03-19T01:06:02.781Z,100841.60
2023-03-19T01:11:14.688Z,100843.84
2023-03-19T01:16:20.513Z,100839.31
2023-03-19T01:21:27.478Z,100838.62
2023-03-19T01:26:32.994Z,100842.51
2023-03-19T01:31:40.477Z,100840.98
2023-03-19T01:36:50.680Z,100845.59
2023-03-19T01:41:59.424Z,100845.27
2023-03-19T01:47:09.558Z,100845.30
2023-03-19T01:52:17.584Z,100836.70
2023-03-19T01:57:29.524Z,100830.81
2023-03-19T02:02:52.471Z,100842.23
2023-03-19T02:08:05.482Z,100846.39
2023-03-19T02:13:11.751Z,100847.23
2023-03-19T02:18:19.992Z,100850.30
2023-03-19T02:23:31.168Z,100843.86
2023-03-19T02:28:41.354Z,100845.16
2023-03-19T02:34:02.533Z,100853.06
2023-03-19T02:39:11.193Z,100858.44
2023-03-19T02:44:18.467Z,100852.16
2023-03-19T02:49:24.844Z,100859.77
2023-03-19T02:54:30.851Z,100874.39
2023-03-19T02:59:36.457Z,100874.32
2023-03-19T03:04:42.015Z,100871.95
2023-03-19T03:09:47.618Z,100866.45
2023-03-19T03:14:53.405Z,100874.63
2023-03-19T03:19:58.946Z,100870.77
2023-03-19T03:25:04.637Z,100874.95
2023-03-19T03:30:12.960Z,100876.99
2023-03-19T03:35:20.200Z,100874.33
2023-03-19T03:40:27.498Z,100878.88
2023-03-19T03:45:33.494Z,100874.28
2023-03-19T03:50:39.206Z,100880.80
2023-03-19T03:55:46.692Z,100870.61
2023-03-19T04:00:54.688Z,100881.61
2023-03-19T04:06:00.667Z,100874.39
2023-03-19T04:11:10.610Z,100872.01
2023-03-19T04:16:16.932Z,100868.33
2023-03-19T04:21:23.259Z,100849.98
2023-03-19T04:26:28.961Z,100853.81
2023-03-19T04:31:34.590Z,100853.91
2023-03-19T04:36:40.528Z,100849.58
2023-03-19T04:41:46.290Z,100855.47
2023-03-19T04:46:53.424Z,100865.20
2023-03-19T04:51:59.726Z,100871.37
2023-03-19T04:57:05.788Z,100871.13
2023-03-19T05:02:13.081Z,100868.75
2023-03-19T05:07:19.161Z,100872.43
2023-03-19T05:12:26.137Z,100870.01
2023-03-19T05:17:32.701Z,100874.63
2023-03-19T05:22:49.480Z,100868.31
2023-03-19T05:27:55.659Z,100864.38
2023-03-19T05:33:03.690Z,100865.86
2023-03-19T05:38:13.783Z,100873.39
2023-03-19T05:43:20.738Z,100878.12
2023-03-19T05:48:27.641Z,100890.34
2023-03-19T05:53:34.049Z,100897.12
2023-03-19T05:58:41.126Z,100894.70
2023-03-19T06:03:47.020Z,100900.03
2023-03-19T06:08:53.195Z,100922.57
2023-03-19T06:14:00.993Z,100948.52
2023-03-19T06:19:08.713Z,100946.77
2023-03-19T06:24:14.692Z,100950.52
2023-03-19T06:29:20.674Z,100945.97
2023-03-19T06:34:28.479Z,100935.62
2023-03-19T06:39:35.020Z,100935.00
2023-03-19T06:44:40.810Z,100932.74
2023-03-19T06:49:47.905Z,100937.63
2023-03-19T06:54:53.450Z,100932.46
2023-03-19T06:59:58.988Z,100934.28
2023-03-19T07:05:05.500Z,100940.77
2023-03-19T07:10:11.938Z,100946.45
2023-03-19T07:15:19.499Z,100954.11
2023-03-19T07:20:24.964Z,100965.55
2023-03-19T07:25:30.793Z,100971.95
2023-03-19T07:30:37.925Z,100972.91
2023-03-19T07:35:43.353Z,100976.50
2023-03-19T07:41:01.298Z,100988.94
2023-03-19T07:45:56.213Z,101006.19
2023-03-19T07:51:01.939Z,101010.83
2023-03-19T07:56:09.014Z,101023.27
2023-03-19T08:01:14.513Z,101026.95
2023-03-19T08:06:20.540Z,101022.71
2023-03-19T08:11:26.294Z,101020.70
2023-03-19T08:16:32.335Z,101008.22
2023-03-19T08:21:38.458Z,100996.69
2023-03-19T08:26:44.038Z,100995.56
2023-03-19T08:31:49.486Z,100985.87
2023-03-19T08:36:54.943Z,100981.02
2023-03-19T08:42:00.677Z,100985.73
2023-03-19T08:47:06.286Z,100989.40
2023-03-19T08:52:12.199Z,100990.84
2023-03-19T08:57:17.691Z,100984.03
2023-03-19T09:02:23.229Z,100990.18
2023-03-19T09:07:28.789Z,100984.03
2023-03-19T09:12:34.469Z,100990.84
2023-03-19T09:17:40.022Z,100994.67
2023-03-19T09:22:46.988Z,101006.56
2023-03-19T09:27:52.464Z,101009.93
2023-03-19T09:32:58.056Z,101019.14
2023-03-19T09:38:03.697Z,101034.38
2023-03-19T09:43:46.999Z,101033.14
2023-03-19T09:48:56.242Z,101028.83
2023-03-19T09:54:05.350Z,101025.73
2023-03-19T09:59:10.989Z,101032.42
2023-03-19T10:04:43.903Z,101011.06
2023-03-19T10:10:01.426Z,100999.58
2023-03-19T10:15:19.994Z,100978.38
2023-03-19T10:20:37.786Z,100970.98
2023-03-19T10:25:45.051Z,100962.30
2023-03-19T10:30:53.558Z,100979.02
2023-03-19T10:36:12.427Z,100965.72
2023-03-19T10:41:24.246Z,100961.47
2023-03-19T10:46:31.304Z,100950.48
2023-03-19T10:51:38.712Z,100942.68
2023-03-19T10:56:47.420Z,100938.44
2023-03-19T11:01:58.685Z,100962.48
2023-03-19T11:07:13.583Z,100961.41
2023-03-19T11:12:25.524Z,100962.86
2023-03-19T11:17:48.319Z,100961.52
2023-03-19T11:22:55.449Z,100960.69
2023-03-19T11:28:12.487Z,100962.55
2023-03-19T11:33:54.257Z,100967.16
2023-03-19T11:39:31.123Z,100961.61
2023-03-19T11:45:00.666Z,100968.23
2023-03-19T11:50:25.904Z,100953.42
2023-03-19T11:55:51.462Z,100938.13
2023-03-19T12:01:05.464Z,100939.78
2023-03-19T12:06:19.892Z,100932.28
2023-03-19T12:11:28.028Z,100942.75
2023-03-19T12:16:51.314Z,100935.58
2023-03-19T12:22:20.625Z,100934.03
2023-03-19T12:27:35.174Z,100934.20
2023-03-19T12:33:04.731Z,100943.06
2023-03-19T12:38:23.629Z,100937.13
2023-03-19T12:43:54.505Z,100929.88
2023-03-19T12:49:06.525Z,100933.53
2023-03-19T12:54:27.442Z,100940.34
2023-03-19T12:59:45.052Z,100938.09
2023-03-19T13:05:03.449Z,100934.87
2023-03-19T13:10:12.346Z,100918.80
2023-03-19T13:15:36.138Z,100914.80
2023-03-19T13:20:53.545Z,100914.06
2023-03-19T13:26:03.789Z,100904.29
2023-03-19T13:31:22.324Z,100904.33
2023-03-19T13:36:34.250Z,100906.31
2023-03-19T13:41:42.927Z,100902.80
2023-03-19T13:46:49.046Z,100900.84
2023-03-19T13:52:00.243Z,100909.19
2023-03-19T13:57:18.353Z,100911.87
2023-03-19T14:02:26.152Z,100906.72
2023-03-19T14:07:37.278Z,100904.48
2023-03-19T14:12:46.698Z,100905.47
2023-03-19T14:17:57.848Z,100914.59
2023-03-19T14:23:17.955Z,100905.34
2023-03-19T14:28:29.518Z,100902.84
2023-03-19T14:33:47.076Z,100902.46
2023-03-19T14:39:01.280Z,100899.69
2023-03-19T14:44:12.755Z,100900.37
2023-03-19T14:49:45.463Z,100896.95
2023-03-19T14:54:53.934Z,100899.20
2023-03-19T15:00:00.107Z,100899.89
2023-03-19T15:05:25.516Z,100898.05
2023-03-19T15:10:52.458Z,100887.25
2023-03-19T15:16:07.235Z,100897.73
2023-03-19T15:21:13.172Z,100907.45
2023-03-19T15:26:22.745Z,100897.39
2023-03-19T15:31:53.944Z,100895.30
2023-03-19T15:36:58.191Z,100899.02
2023-03-19T15:42:06.212Z,100898.49
2023-03-19T15:47:14.874Z,100899.36
2023-03-19T15:52:21.584Z,100908.06
2023-03-19T15:57:27.621Z,100904.41
2023-03-19T16:02:35.696Z,100911.87
2023-03-19T16:07:45.463Z,100911.66
2023-03-19T16:12:51.307Z,100920.86
2023-03-19T16:17:57.075Z,100912.25
2023-03-19T16:23:02.954Z,100910.29
2023-03-19T16:28:11.397Z,100913.20
2023-03-19T16:33:18.087Z,100920.36
2023-03-19T16:38:28.477Z,100933.48
2023-03-19T16:43:36.546Z,100934.34
2023-03-19T16:48:42.025Z,100939.71
2023-03-19T16:53:49.436Z,100937.22
2023-03-19T16:58:55.047Z,100934.72
2023-03-19T17:04:01.712Z,100940.77
2023-03-19T17:09:07.228Z,100943.14
2023-03-19T17:14:18.721Z,100939.20
2023-03-19T17:19:27.251Z,100945.16
2023-03-19T17:24:34.759Z,100941.01
2023-03-19T17:29:40.367Z,100948.42
2023-03-19T17:34:46.048Z,100948.50
2023-03-19T17:39:51.979Z,100952.10
2023-03-19T17:44:59.046Z,100953.98
2023-03-19T17:50:06.824Z,100956.44
2023-03-19T17:55:20.969Z,100952.46
2023-03-19T18:00:26.553Z,100959.02
2023-03-19T18:05:32.357Z,100960.51
2023-03-19T18:10:37.933Z,100965.36
2023-03-19T18:15:45.945Z,100964.55
2023-03-19T18:20:52.097Z,100962.16
2023-03-19T18:25:57.669Z,100971.58
2023-03-19T18:31:03.416Z,100982.21
2023-03-19T18:36:09.731Z,100980.09
2023-03-19T18:41:20.624Z,100983.25
2023-03-19T18:46:30.827Z,100973.67
2023-03-19T18:51:36.548Z,100975.09
2023-03-19T18:56:43.148Z,100962.17
2023-03-19T19:01:49.817Z,100969.81
2023-03-19T19:06:56.083Z,100975.09
2023-03-19T19:12:02.078Z,100969.61
2023-03-19T19:17:07.850Z,100981.56
2023-03-19T19:22:18.839Z,100979.69
2023-03-19T19:27:26.868Z,100976.31
2023-03-19T19:32:33.001Z,100973.81
2023-03-19T19:37:38.638Z,100974.94
2023-03-19T19:42:46.252Z,100976.83
2023-03-19T19:47:52.083Z,100977.05
2023-03-19T19:52:59.526Z,100982.22
2023-03-19T19:58:08.683Z,100986.80
2023-03-19T20:03:23.294Z,100984.52
2023-03-19T20:08:29.074Z,100993.20
2023-03-19T20:13:36.665Z,100992.69
2023-03-19T20:18:43.832Z,100988.02
2023-03-19T20:23:51.467Z,100984.48
2023-03-19T20:28:57.179Z,100981.89
2023-03-19T20:34:02.797Z,100983.83
2023-03-19T20:39:08.283Z,100985.33
2023-03-19T20:44:16.735Z,100986.36
2023-03-19T20:49:22.804Z,100983.81
2023-03-19T20:54:28.798Z,100985.08
2023-03-19T20:59:34.365Z,100999.89
2023-03-19T21:04:39.844Z,100987.27
2023-03-19T21:09:45.369Z,100990.44
2023-03-19T21:14:50.835Z,100983.79
2023-03-19T21:19:57.554Z,100984.56
2023-03-19T21:25:06.232Z,100983.54
2023-03-19T21:30:14.782Z,100978.48
2023-03-19T21:35:25.798Z,100978.09
2023-03-19T21:40:32.231Z,100980.55
2023-03-19T21:45:38.169Z,100979.63
2023-03-19T21:50:43.852Z,100975.81
2023-03-19T21:55:51.158Z,100974.98
2023-03-19T22:00:57.337Z,100973.83
2023-03-19T22:06:02.820Z,100973.17
2023-03-19T22:11:11.324Z,100973.63
2023-03-19T22:16:23.270Z,100971.34
2023-03-19T22:21:33.282Z,100972.84
2023-03-19T22:26:41.748Z,100963.52
2023-03-19T22:31:49.380Z,100963.16
2023-03-19T22:36:55.868Z,100961.25
2023-03-19T22:42:01.466Z,100960.02
2023-03-19T22:47:07.393Z,100952.84
2023-03-19T22:52:14.065Z,100955.25
2023-03-19T22:57:19.479Z,100959.45
2023-03-19T23:02:25.103Z,100953.34
2023-03-19T23:07:30.570Z,100952.19
2023-03-19T23:12:36.046Z,100959.27
2023-03-19T23:17:42.282Z,100954.34
2023-03-19T23:22:48.112Z,100952.32
2023-03-19T23:27:56.156Z,100955.11
2023-03-19T23:33:04.320Z,100957.30
2023-03-19T23:38:11.629Z,100952.47
2023-03-19T23:43:20.505Z,100951.42
2023-03-19T23:48:41.371Z,100947.58
2023-03-19T23:53:47.019Z,100952.33
